createdAt,value
2022-08-16T00:02:13.025Z,9.25
2022-08-16T00:04:40.470Z,9.40
2022-08-16T00:07:07.580Z,9.30
2022-08-16T00:13:27.539Z,9.25
2022-08-16T00:15:55.596Z,9.25
2022-08-16T00:19:02.714Z,9.82
2022-08-16T00:21:31.924Z,10.25
2022-08-16T00:23:59.304Z,9.38
2022-08-16T00:26:34.928Z,9.20
2022-08-16T00:29:07.718Z,9.20
2022-08-16T00:31:59.578Z,10.25
2022-08-16T00:34:44.672Z,9.50
2022-08-16T00:37:17.209Z,9.20
2022-08-16T00:39:47.181Z,10.10
2022-08-16T00:42:30.571Z,9.95
2022-08-16T00:45:36.797Z,10.15
2022-08-16T00:48:30.308Z,9.95
2022-08-16T00:51:00.000Z,9.57
2022-08-16T00:53:27.452Z,9.90
2022-08-16T00:56:05.462Z,9.38
2022-08-16T00:58:36.123Z,9.93
2022-08-16T01:01:08.147Z,10.35
2022-08-16T01:03:37.415Z,9.90
2022-08-16T01:06:32.626Z,9.68
2022-08-16T01:13:27.427Z,9.48
2022-08-16T01:16:03.149Z,10.57
2022-08-16T01:22:48.620Z,11.25
2022-08-16T01:25:34.026Z,11.18
2022-08-16T01:28:45.309Z,11.23
2022-08-16T01:31:14.714Z,11.85
2022-08-16T01:33:44.651Z,11.10
2022-08-16T01:36:13.006Z,11.40
2022-08-16T01:39:20.469Z,11.07
2022-08-16T01:41:50.034Z,11.35
2022-08-16T01:44:18.590Z,10.50
2022-08-16T01:46:48.425Z,13.23
2022-08-16T01:49:35.987Z,12.02
2022-08-16T01:52:28.077Z,10.88
2022-08-16T01:55:18.228Z,13.43
2022-08-16T01:57:53.795Z,12.07
2022-08-16T02:00:29.176Z,13.20
2022-08-16T02:02:58.911Z,13.57
2022-08-16T02:05:25.841Z,14.52
2022-08-16T02:07:58.800Z,14.05
2022-08-16T02:10:26.860Z,14.95
2022-08-16T02:12:55.954Z,15.20
2022-08-16T02:15:29.209Z,14.40
2022-08-16T02:18:03.171Z,15.05
2022-08-16T02:20:39.443Z,15.40
2022-08-16T02:23:09.649Z,14.88
2022-08-16T02:25:52.407Z,15.60
2022-08-16T02:32:50.168Z,13.20
2022-08-16T02:35:04.903Z,15.57
2022-08-16T02:41:28.616Z,14.27
2022-08-16T02:43:56.984Z,12.32
2022-08-16T02:46:30.133Z,12.10
2022-08-16T02:50:01.448Z,15.13
2022-08-16T02:52:11.573Z,14.13
2022-08-16T02:54:55.449Z,15.07
2022-08-16T02:57:24.530Z,13.80
2022-08-16T02:59:51.703Z,15.32
2022-08-16T03:02:19.191Z,12.73
2022-08-16T03:04:59.994Z,12.70
2022-08-16T03:07:53.143Z,14.23
2022-08-16T03:10:20.348Z,14.15
2022-08-16T03:13:00.800Z,13.40
2022-08-16T03:15:29.743Z,14.90
2022-08-16T03:22:28.051Z,13.82
2022-08-16T03:25:01.570Z,13.15
2022-08-16T03:27:57.967Z,13.40
2022-08-16T03:30:30.503Z,14.77
2022-08-16T03:33:04.464Z,14.75
2022-08-16T03:35:42.031Z,14.82
2022-08-16T03:39:14.921Z,13.32
2022-08-16T03:41:50.586Z,12.98
2022-08-16T03:44:40.657Z,12.93
2022-08-16T03:47:10.312Z,14.50
2022-08-16T03:50:00.408Z,15.30
2022-08-16T03:52:31.598Z,13.52
2022-08-16T03:55:00.371Z,13.18
2022-08-16T03:57:31.495Z,13.88
2022-08-16T04:03:07.695Z,15.70
2022-08-16T04:05:44.297Z,14.90
2022-08-16T04:08:23.148Z,14.93
2022-08-16T04:10:57.855Z,13.23
2022-08-16T04:14:01.719Z,15.43
2022-08-16T04:16:27.653Z,14.20
2022-08-16T04:19:26.732Z,15.48
2022-08-16T04:22:00.715Z,14.73
2022-08-16T04:24:31.344Z,15.40
2022-08-16T04:26:59.153Z,13.45
2022-08-16T04:29:43.983Z,15.32
2022-08-16T04:32:14.281Z,15.88
2022-08-16T04:34:44.168Z,17.10
2022-08-16T04:37:12.798Z,16.05
2022-08-16T04:39:46.889Z,15.82
2022-08-16T04:42:26.554Z,16.55
2022-08-16T04:44:58.572Z,16.00
2022-08-16T04:48:08.352Z,15.90
2022-08-16T04:50:45.584Z,15.60
2022-08-16T04:53:16.664Z,17.33
2022-08-16T04:55:53.037Z,18.88
2022-08-16T05:01:58.220Z,20.10
2022-08-16T05:04:25.567Z,17.77
2022-08-16T05:06:57.912Z,19.27
2022-08-16T05:09:45.080Z,18.35
2022-08-16T05:12:18.200Z,18.48
2022-08-16T05:15:01.765Z,16.67
2022-08-16T05:18:15.939Z,19.42
2022-08-16T05:21:01.405Z,22.73
2022-08-16T05:23:36.876Z,15.93
2022-08-16T05:26:04.285Z,18.80
2022-08-16T05:29:14.873Z,17.88
2022-08-16T05:31:56.498Z,19.42
2022-08-16T05:34:25.122Z,18.10
2022-08-16T05:36:57.315Z,20.40
2022-08-16T05:40:13.217Z,23.88
2022-08-16T05:42:45.995Z,20.70
2022-08-16T05:45:13.456Z,19.63
2022-08-16T05:48:55.237Z,19.60
2022-08-16T05:51:37.734Z,19.23
2022-08-16T05:54:06.913Z,19.02
2022-08-16T05:56:34.278Z,21.15
2022-08-16T06:00:22.805Z,21.08
2022-08-16T06:02:52.834Z,20.23
2022-08-16T06:05:41.366Z,19.98
2022-08-16T06:08:45.003Z,20.42
2022-08-16T06:11:15.622Z,19.48
2022-08-16T06:13:47.487Z,20.10
2022-08-16T06:16:19.424Z,19.63
2022-08-16T06:18:52.367Z,19.15
2022-08-16T06:21:22.694Z,21.80
2022-08-16T06:23:54.087Z,19.20
2022-08-16T06:26:23.035Z,19.83
2022-08-16T06:29:41.456Z,20.42
2022-08-16T06:32:09.255Z,20.13
2022-08-16T06:34:57.204Z,20.70
2022-08-16T06:38:00.028Z,20.05
2022-08-16T06:40:33.289Z,21.45
2022-08-16T06:45:43.458Z,20.38
2022-08-16T06:48:14.027Z,20.27
2022-08-16T06:50:51.976Z,20.58
2022-08-16T06:53:20.216Z,20.50
2022-08-16T06:56:00.058Z,20.70
2022-08-16T06:59:20.421Z,21.33
2022-08-16T07:01:58.303Z,21.23
2022-08-16T07:04:33.401Z,21.17
2022-08-16T07:07:14.474Z,21.90
2022-08-16T07:10:26.681Z,20.63
2022-08-16T07:13:03.785Z,21.50
2022-08-16T07:15:34.621Z,20.60
2022-08-16T07:22:37.529Z,20.58
2022-08-16T07:25:14.136Z,20.08
2022-08-16T07:27:48.194Z,21.25
2022-08-16T07:30:39.251Z,21.90
2022-08-16T07:33:08.074Z,21.42
2022-08-16T07:35:44.417Z,21.05
2022-08-16T07:38:43.105Z,20.67
2022-08-16T07:41:11.117Z,19.60
2022-08-16T07:43:44.295Z,21.08
2022-08-16T07:46:38.852Z,20.42
2022-08-16T07:49:32.873Z,18.60
2022-08-16T07:52:20.064Z,18.00
2022-08-16T07:54:48.965Z,18.55
2022-08-16T07:57:16.539Z,18.95
2022-08-16T07:59:46.598Z,18.25
2022-08-16T08:02:20.459Z,18.92
2022-08-16T08:04:52.527Z,19.55
2022-08-16T08:07:20.755Z,17.60
2022-08-16T08:09:50.162Z,17.77
2022-08-16T08:12:32.628Z,17.00
2022-08-16T08:15:11.781Z,17.42
2022-08-16T08:17:45.448Z,16.60
2022-08-16T08:20:26.321Z,17.67
2022-08-16T08:23:00.502Z,17.88
2022-08-16T08:25:53.435Z,17.50
2022-08-16T08:28:38.660Z,18.20
2022-08-16T08:31:07.490Z,18.15
2022-08-16T08:33:38.881Z,17.15
2022-08-16T08:36:21.740Z,19.05
2022-08-16T08:39:03.337Z,17.67
2022-08-16T08:41:50.422Z,19.20
2022-08-16T08:44:29.192Z,19.48
2022-08-16T08:47:12.061Z,19.25
2022-08-16T08:53:30.387Z,18.45
2022-08-16T08:56:45.724Z,20.00
2022-08-16T08:59:58.312Z,18.20
2022-08-16T09:02:38.156Z,17.92
2022-08-16T09:05:15.838Z,17.60
2022-08-16T09:08:02.043Z,17.05
2022-08-16T09:19:02.441Z,19.08
2022-08-16T09:21:32.373Z,18.13
2022-08-16T09:24:04.569Z,19.10
2022-08-16T09:26:44.638Z,18.77
2022-08-16T09:29:45.651Z,20.83
2022-08-16T09:32:28.781Z,18.95
2022-08-16T09:34:58.484Z,19.70
2022-08-16T09:37:29.891Z,19.92
2022-08-16T09:40:01.615Z,20.67
2022-08-16T09:42:29.752Z,21.00
2022-08-16T09:45:10.619Z,24.63
2022-08-16T09:51:06.800Z,23.17
2022-08-16T09:53:33.808Z,24.35
2022-08-16T09:56:02.182Z,23.92
2022-08-16T09:59:42.376Z,26.58
2022-08-16T10:02:27.412Z,24.88
2022-08-16T10:04:56.477Z,25.05
2022-08-16T10:07:25.489Z,25.90
2022-08-16T10:09:55.095Z,24.27
2022-08-16T10:12:55.886Z,25.23
2022-08-16T10:15:25.667Z,26.10
2022-08-16T10:18:01.148Z,25.95
2022-08-16T10:20:37.714Z,25.25
2022-08-16T10:23:08.461Z,27.70
2022-08-16T10:27:18.564Z,30.20
2022-08-16T10:29:24.609Z,26.65
2022-08-16T10:32:27.641Z,25.15
2022-08-16T10:35:16.022Z,29.92
2022-08-16T10:37:52.926Z,27.80
2022-08-16T10:40:29.311Z,23.00
2022-08-16T10:43:01.993Z,21.17
2022-08-16T10:45:36.647Z,21.95
2022-08-16T10:48:27.099Z,25.65
2022-08-16T10:50:58.599Z,22.52
2022-08-16T10:53:32.685Z,24.38
2022-08-16T10:56:03.253Z,20.63
2022-08-16T10:58:35.240Z,22.38
2022-08-16T11:03:57.281Z,21.48
2022-08-16T11:06:26.719Z,21.70
2022-08-16T11:14:30.518Z,23.23
2022-08-16T11:17:02.945Z,22.85
2022-08-16T11:20:40.860Z,21.63
2022-08-16T11:22:48.624Z,15.82
2022-08-16T11:28:36.467Z,14.32
2022-08-16T11:31:00.864Z,13.23
2022-08-16T11:36:22.540Z,12.77
2022-08-16T11:39:12.125Z,12.07
2022-08-16T11:41:43.634Z,12.10
2022-08-16T11:44:11.666Z,12.85
2022-08-16T11:46:47.259Z,13.02
2022-08-16T11:49:20.401Z,12.60
2022-08-16T11:51:47.430Z,10.95
2022-08-16T11:54:21.002Z,9.95
2022-08-16T11:56:52.436Z,8.23
2022-08-16T11:59:29.296Z,8.20
2022-08-16T12:01:59.662Z,8.02
2022-08-16T12:04:31.717Z,9.02
2022-08-16T12:06:58.770Z,8.35
2022-08-16T12:09:31.866Z,7.70
2022-08-16T12:12:02.887Z,9.80
2022-08-16T12:14:35.174Z,6.00
2022-08-16T12:17:05.549Z,6.38
2022-08-16T12:19:36.576Z,5.40
2022-08-16T12:22:19.258Z,6.15
2022-08-16T12:24:52.188Z,6.28
2022-08-16T12:27:24.715Z,7.10
2022-08-16T12:29:58.642Z,6.95
2022-08-16T12:32:38.588Z,7.18
2022-08-16T12:35:12.331Z,6.65
2022-08-16T12:38:40.898Z,6.30
2022-08-16T12:41:08.254Z,6.05
2022-08-16T12:43:36.487Z,6.00
2022-08-16T12:46:10.347Z,6.43
2022-08-16T12:48:57.480Z,7.53
2022-08-16T12:51:33.144Z,6.47
2022-08-16T12:54:15.875Z,6.70
2022-08-16T12:56:43.032Z,6.95
2022-08-16T12:59:19.875Z,7.13
2022-08-16T13:01:50.596Z,6.55
2022-08-16T13:04:24.890Z,7.03
2022-08-16T13:06:52.911Z,7.22
2022-08-16T13:09:24.157Z,7.05
2022-08-16T13:12:07.208Z,7.30
2022-08-16T13:14:41.206Z,6.63
2022-08-16T13:17:16.982Z,7.65
2022-08-16T13:20:08.119Z,6.15
2022-08-16T13:22:46.489Z,6.30
2022-08-16T13:25:21.418Z,6.28
2022-08-16T13:28:03.101Z,5.97
2022-08-16T13:30:43.171Z,6.65
2022-08-16T13:33:17.486Z,6.47
2022-08-16T13:35:55.404Z,6.78
2022-08-16T13:38:28.212Z,6.15
2022-08-16T13:41:00.316Z,6.07
2022-08-16T13:43:29.016Z,7.20
2022-08-16T13:46:04.590Z,6.83
2022-08-16T13:48:50.823Z,7.80
2022-08-16T13:51:20.229Z,6.60
2022-08-16T13:53:54.563Z,6.65
2022-08-16T13:56:37.653Z,6.15
2022-08-16T13:59:19.396Z,6.35
2022-08-16T14:01:55.606Z,5.85
2022-08-16T14:04:31.155Z,6.40
2022-08-16T14:06:59.672Z,5.97
2022-08-16T14:09:32.058Z,6.03
2022-08-16T14:12:00.840Z,6.80
2022-08-16T14:14:29.919Z,6.95
2022-08-16T14:16:58.679Z,7.18
2022-08-16T14:19:27.937Z,7.38
2022-08-16T14:22:13.768Z,7.78
2022-08-16T14:24:47.872Z,7.57
2022-08-16T14:27:19.647Z,7.65
2022-08-16T14:29:50.073Z,8.27
2022-08-16T14:32:32.752Z,7.57
2022-08-16T14:35:02.705Z,7.50
2022-08-16T14:38:07.544Z,8.50
2022-08-16T14:40:35.476Z,8.48
2022-08-16T14:43:06.986Z,7.90
2022-08-16T14:45:34.677Z,7.93
2022-08-16T14:48:03.064Z,7.75
2022-08-16T14:50:31.344Z,8.65
2022-08-16T14:53:03.850Z,8.27
2022-08-16T14:55:32.930Z,8.93
2022-08-16T14:58:01.648Z,8.48
2022-08-16T15:00:33.270Z,9.20
2022-08-16T15:03:05.827Z,8.88
2022-08-16T15:05:33.189Z,8.48
2022-08-16T15:08:00.563Z,9.40
2022-08-16T15:10:29.397Z,8.85
2022-08-16T15:13:00.846Z,9.13
2022-08-16T15:15:29.723Z,9.23
2022-08-16T15:17:58.994Z,9.23
2022-08-16T15:20:33.430Z,9.00
2022-08-16T15:23:02.685Z,7.25
2022-08-16T15:25:44.473Z,8.85
2022-08-16T15:28:30.747Z,9.18
2022-08-16T15:31:04.635Z,9.15
2022-08-16T15:33:43.403Z,8.68
2022-08-16T15:36:18.111Z,8.77
2022-08-16T15:39:02.229Z,9.15
2022-08-16T15:41:42.666Z,8.82
2022-08-16T15:44:13.314Z,9.15
2022-08-16T15:46:55.627Z,10.65
2022-08-16T15:49:32.129Z,9.95
2022-08-16T15:52:07.705Z,9.77
2022-08-16T15:54:52.352Z,10.07
2022-08-16T15:59:52.827Z,10.50
2022-08-16T16:02:29.556Z,10.00
2022-08-16T16:05:01.575Z,11.13
2022-08-16T16:07:30.945Z,10.77
2022-08-16T16:09:59.543Z,11.43
2022-08-16T16:15:17.650Z,11.57
2022-08-16T16:17:50.719Z,12.95
2022-08-16T16:20:19.792Z,11.88
2022-08-16T16:22:47.764Z,12.60
2022-08-16T16:25:16.035Z,12.43
2022-08-16T16:27:46.758Z,13.07
2022-08-16T16:30:33.030Z,12.85
2022-08-16T16:33:05.668Z,13.88
2022-08-16T16:35:34.906Z,13.35
2022-08-16T16:38:42.683Z,13.68
2022-08-16T16:41:11.569Z,14.18
2022-08-16T16:43:41.124Z,14.52
2022-08-16T16:46:40.339Z,13.43
2022-08-16T16:49:03.883Z,13.48
2022-08-16T16:51:31.701Z,14.55
2022-08-16T16:53:59.936Z,15.15
2022-08-16T16:56:31.310Z,14.52
2022-08-16T16:59:09.839Z,12.90
2022-08-16T17:02:00.060Z,14.15
2022-08-16T17:04:32.727Z,14.38
2022-08-16T17:07:03.714Z,15.80
2022-08-16T17:09:34.995Z,15.27
2022-08-16T17:12:08.887Z,15.07
2022-08-16T17:14:38.453Z,14.05
2022-08-16T17:17:11.559Z,15.07
2022-08-16T17:20:00.996Z,15.20
2022-08-16T17:22:33.026Z,16.13
2022-08-16T17:25:00.843Z,15.90
2022-08-16T17:30:19.758Z,16.52
2022-08-16T17:32:56.862Z,14.75
2022-08-16T17:35:34.106Z,15.18
2022-08-16T17:38:07.077Z,16.10
2022-08-16T17:39:26.846Z,16.75
2022-08-16T17:40:50.334Z,15.50
2022-08-16T17:43:31.514Z,15.25
2022-08-16T17:45:58.536Z,16.25
2022-08-16T17:48:27.760Z,14.95
2022-08-16T17:50:55.087Z,12.88
2022-08-16T17:53:22.981Z,15.23
2022-08-16T17:55:50.632Z,15.85
2022-08-16T17:58:22.349Z,15.40
2022-08-16T18:00:52.467Z,15.25
2022-08-16T18:04:06.833Z,16.92
2022-08-16T18:06:13.409Z,16.60
2022-08-16T18:08:42.665Z,15.25
2022-08-16T18:11:13.355Z,14.10
2022-08-16T18:13:43.145Z,17.45
2022-08-16T18:16:11.552Z,18.02
2022-08-16T18:18:39.932Z,15.43
2022-08-16T18:21:25.501Z,17.00
2022-08-16T18:23:52.861Z,17.63
2022-08-16T18:26:20.009Z,16.90
2022-08-16T18:28:48.293Z,16.73
2022-08-16T18:31:15.215Z,16.83
2022-08-16T18:33:43.757Z,17.38
2022-08-16T18:36:21.078Z,18.88
2022-08-16T18:38:50.240Z,17.17
2022-08-16T18:41:18.185Z,16.90
2022-08-16T18:44:00.965Z,18.58
2022-08-16T18:46:32.404Z,17.50
2022-08-16T18:49:00.524Z,19.50
2022-08-16T18:51:27.436Z,16.88
2022-08-16T18:53:55.019Z,17.42
2022-08-16T18:56:21.882Z,19.13
2022-08-16T18:58:50.172Z,19.25
2022-08-16T19:01:17.081Z,19.05
2022-08-16T19:03:44.097Z,18.30
2022-08-16T19:06:14.186Z,18.58
2022-08-16T19:08:44.993Z,16.70
2022-08-16T19:11:14.856Z,15.65
2022-08-16T19:13:44.276Z,17.42
2022-08-16T19:16:13.449Z,15.73
2022-08-16T19:18:41.705Z,17.23
2022-08-16T19:21:11.500Z,18.38
2022-08-16T19:26:24.684Z,14.77
2022-08-16T19:29:32.015Z,17.63
2022-08-16T19:31:58.965Z,16.70
2022-08-16T19:34:26.571Z,17.95
2022-08-16T19:36:54.340Z,18.55
2022-08-16T19:39:22.326Z,19.38
2022-08-16T19:41:53.636Z,19.67
2022-08-16T19:44:22.755Z,18.77
2022-08-16T19:46:50.134Z,20.00
2022-08-16T19:49:57.050Z,21.92
2022-08-16T19:52:28.998Z,20.80
2022-08-16T19:55:00.372Z,20.13
2022-08-16T19:57:27.453Z,21.00
2022-08-16T19:59:54.320Z,19.95
2022-08-16T20:02:36.295Z,22.55
2022-08-16T20:05:07.167Z,21.67
2022-08-16T20:07:34.344Z,21.67
2022-08-16T20:10:02.903Z,20.33
2022-08-16T20:12:30.049Z,20.17
2022-08-16T20:14:57.274Z,20.10
2022-08-16T20:17:26.271Z,22.85
2022-08-16T20:19:53.621Z,18.98
2022-08-16T20:22:49.705Z,20.63
2022-08-16T20:25:13.826Z,18.67
2022-08-16T20:27:42.169Z,19.08
2022-08-16T20:30:11.379Z,16.08
2022-08-16T20:32:38.388Z,16.75
2022-08-16T20:35:07.596Z,20.35
2022-08-16T20:37:37.767Z,16.80
2022-08-16T20:40:28.149Z,19.77
2022-08-16T20:43:06.323Z,18.85
2022-08-16T20:45:34.309Z,19.40
2022-08-16T20:48:01.614Z,18.20
2022-08-16T20:50:28.620Z,19.15
2022-08-16T20:52:56.065Z,20.88
2022-08-16T20:55:24.424Z,17.05
2022-08-16T20:57:56.181Z,22.13
2022-08-16T21:00:23.386Z,20.17
2022-08-16T21:02:50.448Z,24.20
2022-08-16T21:05:24.701Z,20.67
2022-08-16T21:07:55.855Z,21.15
2022-08-16T21:10:23.954Z,22.70
2022-08-16T21:12:57.045Z,21.33
2022-08-16T21:15:25.790Z,23.67
2022-08-16T21:17:53.736Z,23.08
2022-08-16T21:20:23.009Z,23.25
2022-08-16T21:22:59.850Z,23.70
2022-08-16T21:25:27.885Z,20.48
2022-08-16T21:28:40.480Z,21.95
2022-08-16T21:30:44.478Z,21.20
2022-08-16T21:33:14.551Z,23.35
2022-08-16T21:35:43.473Z,24.35
2022-08-16T21:38:29.637Z,23.35
2022-08-16T21:40:58.671Z,21.98
2022-08-16T21:43:27.602Z,22.08
2022-08-16T21:45:55.514Z,19.75
2022-08-16T21:48:33.697Z,22.00
2022-08-16T21:51:02.028Z,23.33
2022-08-16T21:53:29.737Z,21.73
2022-08-16T21:55:58.822Z,22.30
2022-08-16T21:58:46.583Z,22.20
2022-08-16T22:01:19.874Z,24.42
2022-08-16T22:03:46.815Z,24.30
2022-08-16T22:06:14.850Z,23.27
2022-08-16T22:08:49.707Z,22.42
2022-08-16T22:11:24.818Z,21.27
2022-08-16T22:13:58.587Z,21.20
2022-08-16T22:16:28.881Z,21.83
2022-08-16T22:18:57.013Z,23.00
2022-08-16T22:21:24.559Z,20.27
2022-08-16T22:23:56.851Z,21.65
2022-08-16T22:26:31.776Z,20.58
2022-08-16T22:29:06.093Z,21.23
2022-08-16T22:31:33.510Z,24.90
2022-08-16T22:34:02.024Z,24.88
2022-08-16T22:36:30.769Z,26.05
2022-08-16T22:39:36.610Z,27.95
2022-08-16T22:42:08.857Z,30.52
2022-08-16T22:44:37.294Z,30.52
2022-08-16T22:47:05.024Z,30.67
2022-08-16T22:49:35.110Z,29.50
2022-08-16T22:52:09.996Z,30.70
2022-08-16T22:54:48.465Z,30.48
2022-08-16T22:57:16.132Z,29.73
2022-08-16T22:59:45.250Z,50.05
2022-08-16T23:02:12.199Z,54.42
2022-08-16T23:04:39.364Z,52.63
2022-08-16T23:07:06.616Z,48.25
2022-08-16T23:09:33.644Z,35.65
2022-08-16T23:12:07.278Z,32.92
2022-08-16T23:14:34.277Z,34.80
2022-08-16T23:17:01.283Z,35.97
2022-08-16T23:19:29.476Z,27.63
2022-08-16T23:21:57.431Z,25.77
2022-08-16T23:24:24.654Z,27.20
2022-08-16T23:26:51.812Z,26.15
2022-08-16T23:29:57.004Z,27.60
2022-08-16T23:32:23.896Z,28.15
2022-08-16T23:34:51.286Z,26.45
2022-08-16T23:37:22.023Z,28.73
2022-08-16T23:39:49.125Z,25.02
2022-08-16T23:42:52.452Z,26.95
2022-08-16T23:45:09.171Z,26.33
2022-08-16T23:47:37.353Z,25.92
2022-08-16T23:50:04.674Z,25.67
2022-08-16T23:52:42.293Z,26.95
2022-08-16T23:55:18.925Z,26.30
2022-08-16T23:57:47.403Z,26.83
